Time;durP1;ratioP1;P1;durP2;ratioP2;P2;SDS_P1;SDS_P2;PMS_P1;PMS_P2;Temp;Humidity;BMP_temperature;BMP_pressure;BME280_temperature;BME280_humidity;BME280_pressure;Samples;Min_cycle;Max_cycle;Signal;HPM_P1;HPM_P2
2023/04/05 00:01:11;;;;;;;;;;;;;;;6.45;72.24;98476.28;5117850;28;19959;-67
2023/04/05 00:03:38;;;;;;;;;;;;;;;6.42;72.91;98476.72;5119445;28;19930;-66
2023/04/05 00:06:06;;;;;;;;;;;;;;;6.39;72.72;98479.00;5119575;28;19920;-66
2023/04/05 00:08:33;;;;;;;;;;;;;;;6.40;73.52;98467.38;5111263;28;19924;-68
2023/04/05 00:10:59;;;;;;;;;;;;;;;6.37;73.04;98473.94;5111282;28;19935;-68
2023/04/05 00:13:25;;;;;;;;;;;;;;;6.36;73.23;98458.22;5111413;28;19920;-68
2023/04/05 00:15:56;;;;;;;;;;;;;;;6.39;73.27;98463.91;5110714;28;19992;-66
2023/04/05 00:18:23;;;;;;;;;;;;;;;6.37;73.65;98465.16;5110437;28;19960;-68
2023/04/05 00:20:49;;;;;;;;;;;;;;;6.36;73.50;98474.94;5110585;28;19959;-67
2023/04/05 00:23:16;;;;;;;;;;;;;;;6.36;73.37;98474.94;5091924;28;19963;-66
2023/04/05 00:25:43;;;;;;;;;;;;;;;6.35;73.56;98470.66;5110369;28;19924;-67
2023/04/05 00:28:09;;;;;;;;;;;;;;;6.23;73.24;98466.31;5092010;28;19983;-66
2023/04/05 00:30:35;;;;;;;;;;;;;;;6.08;73.62;98469.34;5113985;28;19967;-66
2023/04/05 00:33:03;;;;;;;;;;;;;;;5.91;75.46;98460.38;5118194;28;19958;-67
2023/04/05 00:35:29;;;;;;;;;;;;;;;5.82;77.18;98461.63;5118664;28;19967;-68
2023/04/05 00:37:56;;;;;;;;;;;;;;;5.91;78.04;98457.72;5100274;28;19959;-67
2023/04/05 00:40:23;;;;;;;;;;;;;;;6.00;77.99;98461.69;5120780;28;19924;-67
2023/04/05 00:42:49;;;;;;;;;;;;;;;6.05;75.54;98459.19;5121855;28;19991;-68
2023/04/05 00:45:16;;;;;;;;;;;;;;;6.09;74.78;98455.06;5120704;28;19938;-68
2023/04/05 00:47:42;;;;;;;;;;;;;;;6.12;74.39;98457.28;5118416;28;19991;-67
2023/04/05 00:50:11;;;;;;;;;;;;;;;6.13;73.41;98460.75;5118690;28;19931;-68
2023/04/05 00:52:37;;;;;;;;;;;;;;;6.05;73.11;98458.38;5121794;28;19950;-68
2023/04/05 00:55:04;;;;;;;;;;;;;;;6.09;73.63;98456.91;5122057;28;19934;-68
2023/04/05 00:57:31;;;;;;;;;;;;;;;6.10;73.25;98453.22;5118625;28;20085;-68
2023/04/05 00:59:58;;;;;;;;;;;;;;;6.11;72.94;98452.19;5121810;28;19920;-67
2023/04/05 01:02:28;;;;;;;;;;;;;;;6.13;72.84;98461.53;5096383;28;19920;-67
2023/04/05 01:05:00;;;;;;;;;;;;;;;6.10;72.07;98458.50;5122949;28;19923;-68
2023/04/05 01:07:31;;;;;;;;;;;;;;;5.85;72.41;98448.78;5119689;28;19999;-68
2023/04/05 01:09:59;;;;;;;;;;;;;;;5.26;73.92;98449.28;5118752;28;20570;-68
2023/04/05 01:12:27;;;;;;;;;;;;;;;5.11;75.74;98450.63;5122215;28;20405;-67
2023/04/05 01:14:54;;;;;;;;;;;;;;;5.01;79.18;98434.41;5122136;28;19996;-65
2023/04/05 01:17:22;;;;;;;;;;;;;;;4.82;79.29;98441.47;5120016;28;19955;-67
2023/04/05 01:19:48;;;;;;;;;;;;;;;4.68;81.04;98443.38;5100506;28;19958;-70
2023/04/05 01:22:40;;;;;;;;;;;;;;;4.72;80.81;98438.47;5119437;28;19920;-67
2023/04/05 01:25:22;;;;;;;;;;;;;;;4.88;80.21;98428.19;5121598;28;20390;-65
2023/04/05 01:28:03;;;;;;;;;;;;;;;4.42;80.16;98429.47;5118005;28;19924;-67
2023/04/05 01:30:34;;;;;;;;;;;;;;;4.30;80.10;98431.97;5115463;28;19992;-66
2023/04/05 01:33:08;;;;;;;;;;;;;;;4.74;82.29;98431.13;5117224;28;19952;-66
2023/04/05 01:35:38;;;;;;;;;;;;;;;4.72;81.44;98427.88;5118064;28;19959;-66
2023/04/05 01:38:07;;;;;;;;;;;;;;;5.11;80.27;98424.13;5118108;28;19920;-67
2023/04/05 01:40:35;;;;;;;;;;;;;;;5.37;77.78;98416.81;5117967;28;19924;-69
2023/04/05 01:43:02;;;;;;;;;;;;;;;5.47;76.28;98418.16;5117999;28;20305;-69
2023/04/05 01:45:28;;;;;;;;;;;;;;;5.45;74.25;98419.16;5120769;28;19963;-67
2023/04/05 01:47:56;;;;;;;;;;;;;;;5.59;75.19;98421.72;5121338;28;19931;-67
2023/04/05 01:50:22;;;;;;;;;;;;;;;5.65;74.28;98415.53;5118689;28;19924;-65
2023/04/05 01:52:49;;;;;;;;;;;;;;;5.71;72.74;98417.31;5117400;28;19948;-66
2023/04/05 01:55:15;;;;;;;;;;;;;;;5.72;71.97;98421.59;5119382;28;19920;-66
2023/04/05 01:57:42;;;;;;;;;;;;;;;5.75;71.41;98421.97;5123029;28;20014;-68
2023/04/05 02:00:09;;;;;;;;;;;;;;;5.78;71.05;98420.72;5121818;28;19924;-65
2023/04/05 02:02:35;;;;;;;;;;;;;;;5.79;70.70;98417.00;5095014;28;19923;-68
2023/04/05 02:05:03;;;;;;;;;;;;;;;5.68;70.07;98415.09;5103055;28;20402;-68
2023/04/05 02:07:29;;;;;;;;;;;;;;;5.66;70.61;98414.50;5118060;28;19983;-67
2023/04/05 02:09:56;;;;;;;;;;;;;;;5.68;70.94;98405.31;5098153;28;19984;-68
2023/04/05 02:12:22;;;;;;;;;;;;;;;5.72;71.13;98410.97;5119499;28;20019;-68
2023/04/05 02:14:51;;;;;;;;;;;;;;;5.71;70.99;98404.88;5120639;28;19924;-68
2023/04/05 02:17:17;;;;;;;;;;;;;;;5.40;73.13;98412.91;5101332;28;19935;-70
2023/04/05 02:19:45;;;;;;;;;;;;;;;5.47;73.87;98399.63;5117357;28;20002;-68
2023/04/05 02:22:13;;;;;;;;;;;;;;;5.55;73.21;98401.97;5117941;28;19924;-66
2023/04/05 02:24:40;;;;;;;;;;;;;;;5.59;72.63;98401.31;5120756;28;20019;-67
2023/04/05 02:27:07;;;;;;;;;;;;;;;5.48;72.87;98403.91;5120612;28;19924;-68
2023/04/05 02:29:33;;;;;;;;;;;;;;;5.30;73.57;98396.69;5117240;28;19923;-68
2023/04/05 02:32:00;;;;;;;;;;;;;;;5.27;74.77;98397.94;5112559;28;19942;-67
2023/04/05 02:34:26;;;;;;;;;;;;;;;5.37;75.27;98398.28;5119953;28;19932;-67
2023/04/05 02:36:53;;;;;;;;;;;;;;;5.39;74.56;98390.91;5120993;28;19957;-68
2023/04/05 02:39:21;;;;;;;;;;;;;;;5.47;74.17;98394.31;5118650;28;19973;-68
2023/04/05 02:41:47;;;;;;;;;;;;;;;5.51;73.97;98392.84;5099071;28;20017;-66
2023/04/05 02:44:14;;;;;;;;;;;;;;;5.53;73.73;98393.44;5118268;28;20264;-68
2023/04/05 02:46:40;;;;;;;;;;;;;;;5.56;73.39;98393.00;5120534;28;19934;-68
2023/04/05 02:49:07;;;;;;;;;;;;;;;5.56;73.74;98391.16;5120595;28;20025;-69
2023/04/05 02:51:33;;;;;;;;;;;;;;;5.53;73.89;98399.56;5117238;28;19931;-67
2023/04/05 02:54:00;;;;;;;;;;;;;;;5.54;74.36;98392.41;5117522;28;19920;-67
2023/04/05 02:56:28;;;;;;;;;;;;;;;5.56;74.29;98393.00;5119898;28;19963;-69
2023/04/05 02:58:54;;;;;;;;;;;;;;;5.54;73.84;98389.78;5120787;28;19970;-66
2023/04/05 03:01:21;;;;;;;;;;;;;;;5.52;73.83;98389.97;5113836;28;19934;-67
2023/04/05 03:03:47;;;;;;;;;;;;;;;5.50;74.24;98397.34;5098934;28;19936;-67
2023/04/05 03:06:14;;;;;;;;;;;;;;;5.50;74.22;98394.69;5118090;28;19935;-65
2023/04/05 03:08:42;;;;;;;;;;;;;;;5.49;74.02;98389.59;5120161;28;19954;-68
2023/04/05 03:11:09;;;;;;;;;;;;;;;5.52;73.91;98389.16;5120174;28;19942;-68
2023/04/05 03:13:37;;;;;;;;;;;;;;;5.52;73.62;98386.50;5117099;28;20011;-68
2023/04/05 03:16:04;;;;;;;;;;;;;;;5.48;73.60;98386.13;5117151;28;19951;-66
2023/04/05 03:18:30;;;;;;;;;;;;;;;5.47;73.67;98381.88;5101949;28;19958;-68
2023/04/05 03:20:57;;;;;;;;;;;;;;;5.45;73.97;98384.75;5121650;28;20380;-67
2023/04/05 03:23:26;;;;;;;;;;;;;;;5.42;74.19;98377.22;5121537;28;19923;-67
2023/04/05 03:25:56;;;;;;;;;;;;;;;5.42;74.47;98379.88;5120502;28;19935;-66
2023/04/05 03:28:23;;;;;;;;;;;;;;;5.41;74.64;98388.06;5122372;28;19930;-67
2023/04/05 03:30:51;;;;;;;;;;;;;;;5.39;74.96;98384.78;5121451;28;19928;-67
2023/04/05 03:33:17;;;;;;;;;;;;;;;5.40;75.40;98391.72;5120163;28;19991;-67
2023/04/05 03:35:44;;;;;;;;;;;;;;;5.39;75.11;98382.16;5120590;28;19975;-68
2023/04/05 03:38:10;;;;;;;;;;;;;;;5.37;75.05;98378.91;5121902;28;19955;-67
2023/04/05 03:40:36;;;;;;;;;;;;;;;5.34;75.50;98388.13;5125060;28;19923;-67
2023/04/05 03:43:03;;;;;;;;;;;;;;;5.29;76.02;98377.34;5124201;28;19924;-67
2023/04/05 03:45:29;;;;;;;;;;;;;;;5.29;76.09;98374.69;5120314;28;19959;-66
2023/04/05 03:47:57;;;;;;;;;;;;;;;5.28;76.18;98377.56;5120254;28;20015;-68
2023/04/05 03:50:23;;;;;;;;;;;;;;;5.26;76.48;98383.06;5122869;28;19956;-67
2023/04/05 03:52:50;;;;;;;;;;;;;;;5.27;76.54;98383.91;5123860;28;20553;-66
2023/04/05 03:55:16;;;;;;;;;;;;;;;5.25;76.78;98381.47;5121801;28;19928;-67
2023/04/05 03:57:43;;;;;;;;;;;;;;;5.25;76.85;98384.13;5119868;28;19924;-68
2023/04/05 04:00:13;;;;;;;;;;;;;;;5.24;77.32;98382.50;5123743;28;19924;-66
2023/04/05 04:02:40;;;;;;;;;;;;;;;5.20;77.36;98386.59;5115871;28;19924;-67
2023/04/05 04:05:08;;;;;;;;;;;;;;;5.21;77.49;98382.94;5123379;28;19923;-65
2023/04/05 04:07:35;;;;;;;;;;;;;;;5.17;77.36;98381.72;5111511;28;19955;-68
2023/04/05 04:10:01;;;;;;;;;;;;;;;5.16;78.01;98380.13;5111113;28;19924;-68
2023/04/05 04:12:27;;;;;;;;;;;;;;;5.17;77.88;98381.72;5111008;28;20658;-66
2023/04/05 04:14:54;;;;;;;;;;;;;;;5.16;77.95;98381.97;5111168;28;19983;-68
2023/04/05 04:17:26;;;;;;;;;;;;;;;5.14;78.26;98371.56;5111278;28;19995;-66
2023/04/05 04:19:53;;;;;;;;;;;;;;;5.13;78.17;98377.09;5111259;28;20050;-65
2023/04/05 04:22:21;;;;;;;;;;;;;;;5.12;78.21;98381.59;5111216;28;19924;-68
2023/04/05 04:24:48;;;;;;;;;;;;;;;5.12;78.03;98381.59;5110824;28;19931;-66
2023/04/05 04:27:15;;;;;;;;;;;;;;;5.08;78.41;98371.63;5110871;28;19930;-68
2023/04/05 04:29:45;;;;;;;;;;;;;;;4.98;78.26;98366.03;5111323;28;19924;-67
2023/04/05 04:32:12;;;;;;;;;;;;;;;5.01;78.91;98370.88;5113251;28;19963;-68
2023/04/05 04:34:43;;;;;;;;;;;;;;;5.01;79.09;98370.88;5104781;28;19927;-67
2023/04/05 04:37:16;;;;;;;;;;;;;;;4.94;79.37;98378.06;5122536;28;19924;-68
2023/04/05 04:39:45;;;;;;;;;;;;;;;4.95;79.56;98366.47;5119272;28;19928;-68
2023/04/05 04:42:11;;;;;;;;;;;;;;;4.91;79.62;98371.38;5119664;28;19924;-70
2023/04/05 04:44:41;;;;;;;;;;;;;;;4.97;79.44;98382.94;5122853;28;19927;-69
2023/04/05 04:47:12;;;;;;;;;;;;;;;4.95;79.30;98375.22;5122546;28;19919;-67
2023/04/05 04:49:38;;;;;;;;;;;;;;;4.98;79.10;98377.44;5118850;28;19924;-68
2023/04/05 04:52:04;;;;;;;;;;;;;;;4.88;79.15;98377.09;5118769;28;20025;-67
2023/04/05 04:54:32;;;;;;;;;;;;;;;4.88;79.74;98379.75;5104252;28;19947;-69
2023/04/05 04:57:01;;;;;;;;;;;;;;;4.84;80.31;98381.19;5122500;28;19931;-68
2023/04/05 04:59:27;;;;;;;;;;;;;;;4.87;80.26;98381.56;5119532;28;19935;-69
2023/04/05 05:01:53;;;;;;;;;;;;;;;4.87;80.25;98389.50;5114566;28;19987;-67
2023/04/05 05:04:20;;;;;;;;;;;;;;;4.86;79.99;98381.78;5102581;28;19947;-66
2023/04/05 05:06:46;;;;;;;;;;;;;;;4.83;80.05;98388.31;5122190;28;19924;-68
2023/04/05 05:09:13;;;;;;;;;;;;;;;4.87;80.18;98381.56;5121244;28;19927;-66
2023/04/05 05:11:40;;;;;;;;;;;;;;;4.87;79.91;98384.22;5118707;28;19924;-68
2023/04/05 05:14:07;;;;;;;;;;;;;;;4.85;79.82;98385.47;5118804;28;19991;-68
2023/04/05 05:16:34;;;;;;;;;;;;;;;4.76;80.55;98382.28;5100587;28;20003;-67
2023/04/05 05:19:01;;;;;;;;;;;;;;;4.80;80.73;98380.00;5118363;28;19946;-67
2023/04/05 05:21:27;;;;;;;;;;;;;;;4.81;80.57;98382.44;5122629;28;19928;-67
2023/04/05 05:23:53;;;;;;;;;;;;;;;4.84;80.30;98381.19;5124463;28;19924;-69
2023/04/05 05:26:20;;;;;;;;;;;;;;;4.67;80.76;98385.41;5137294;27;19983;-67
2023/04/05 05:28:48;;;;;;;;;;;;;;;4.69;81.69;98389.44;5118320;28;19954;-67
2023/04/05 05:31:17;;;;;;;;;;;;;;;4.78;81.24;98384.69;5118014;28;19971;-68
2023/04/05 05:33:44;;;;;;;;;;;;;;;4.74;80.98;98388.78;5118390;28;19924;-67
2023/04/05 05:36:10;;;;;;;;;;;;;;;4.78;81.12;98379.41;5100171;28;19951;-67
2023/04/05 05:38:37;;;;;;;;;;;;;;;4.75;80.88;98387.78;5121493;28;19958;-67
2023/04/05 05:41:03;;;;;;;;;;;;;;;4.51;81.21;98377.97;5121879;28;19984;-68
2023/04/05 05:43:30;;;;;;;;;;;;;;;4.43;82.31;98392.22;5118412;28;19981;-69
2023/04/05 05:45:56;;;;;;;;;;;;;;;4.55;83.19;98389.75;5117955;28;19924;-68
2023/04/05 05:48:24;;;;;;;;;;;;;;;4.68;82.53;98393.09;5101906;28;19959;-67
2023/04/05 05:50:50;;;;;;;;;;;;;;;4.60;82.55;98392.56;5103320;28;19963;-67
2023/04/05 05:53:16;;;;;;;;;;;;;;;4.23;84.10;98402.91;5119706;28;19962;-66
2023/04/05 05:55:43;;;;;;;;;;;;;;;4.58;85.71;98398.03;5117921;28;19924;-68
2023/04/05 05:58:09;;;;;;;;;;;;;;;4.55;85.29;98408.25;5118049;28;19978;-67
2023/04/05 06:00:36;;;;;;;;;;;;;;;4.86;84.72;98406.41;5121556;28;19924;-67
2023/04/05 06:03:03;;;;;;;;;;;;;;;5.29;81.91;98398.53;5117093;28;19979;-69
2023/04/05 06:05:31;;;;;;;;;;;;;;;5.57;79.22;98402.56;5100180;28;19924;-68
2023/04/05 06:07:57;;;;;;;;;;;;;;;5.85;76.76;98394.91;5099462;28;19966;-67
2023/04/05 06:10:24;;;;;;;;;;;;;;;5.97;75.19;98396.66;5119824;28;19991;-69
2023/04/05 06:12:50;;;;;;;;;;;;;;;6.05;73.79;98400.03;5120901;28;19935;-68
2023/04/05 06:15:17;;;;;;;;;;;;;;;6.15;72.93;98398.50;5119381;28;19966;-68
2023/04/05 06:17:43;;;;;;;;;;;;;;;6.09;74.88;98410.00;5117431;28;19924;-67
2023/04/05 06:20:11;;;;;;;;;;;;;;;6.39;73.46;98402.88;5117643;28;19954;-68
2023/04/05 06:22:40;;;;;;;;;;;;;;;6.76;70.92;98405.44;5120808;28;19930;-68
2023/04/05 06:25:07;;;;;;;;;;;;;;;6.67;70.28;98415.56;5121084;28;19931;-67
2023/04/05 06:27:33;;;;;;;;;;;;;;;6.90;69.48;98409.53;5109168;28;19931;-67
2023/04/05 06:29:59;;;;;;;;;;;;;;;7.11;67.77;98414.31;5093891;28;19991;-66
2023/04/05 06:32:26;;;;;;;;;;;;;;;7.07;66.32;98405.16;5112751;28;19932;-67
2023/04/05 06:34:52;;;;;;;;;;;;;;;7.00;67.46;98409.75;5121031;28;19931;-68
2023/04/05 06:37:19;;;;;;;;;;;;;;;7.10;66.49;98407.38;5119706;28;20028;-66
2023/04/05 06:39:46;;;;;;;;;;;;;;;6.79;67.04;98405.78;5118770;28;19920;-68
2023/04/05 06:42:12;;;;;;;;;;;;;;;6.90;67.16;98414.84;5118183;28;20027;-68
2023/04/05 06:44:39;;;;;;;;;;;;;;;6.91;66.58;98403.16;5121980;28;19955;-69
2023/04/05 06:47:05;;;;;;;;;;;;;;;6.97;66.40;98404.91;5122335;28;19990;-69
2023/04/05 06:49:31;;;;;;;;;;;;;;;6.82;65.47;98405.34;5118074;28;19971;-70
2023/04/05 06:51:58;;;;;;;;;;;;;;;6.33;67.10;98413.56;5119088;28;19988;-69
2023/04/05 06:54:24;;;;;;;;;;;;;;;6.64;69.93;98409.91;5121604;28;19955;-68
2023/04/05 06:56:52;;;;;;;;;;;;;;;6.80;67.98;98403.97;5126057;28;19928;-68
2023/04/05 06:59:18;;;;;;;;;;;;;;;6.87;68.03;98404.69;5124639;28;20448;-70
2023/04/05 07:01:44;;;;;;;;;;;;;;;7.08;66.59;98414.75;5118314;28;20023;-68
2023/04/05 07:04:12;;;;;;;;;;;;;;;7.14;65.62;98416.50;5123882;28;19924;-67
2023/04/05 07:06:38;;;;;;;;;;;;;;;7.15;65.24;98412.78;5127646;28;19983;-67
2023/04/05 07:09:05;;;;;;;;;;;;;;;7.11;65.14;98411.66;5126146;28;20580;-69
2023/04/05 07:11:31;;;;;;;;;;;;;;;7.09;65.09;98418.25;5121719;28;19955;-70
2023/04/05 07:13:59;;;;;;;;;;;;;;;6.51;65.61;98411.69;5121523;28;20321;-69
2023/04/05 07:16:25;;;;;;;;;;;;;;;6.15;68.80;98414.41;5124057;28;19924;-69
2023/04/05 07:18:52;;;;;;;;;;;;;;;5.89;69.50;98406.75;5124739;28;19924;-66
2023/04/05 07:21:18;;;;;;;;;;;;;;;6.03;72.27;98399.47;5122593;28;19924;-68
2023/04/05 07:23:45;;;;;;;;;;;;;;;5.64;69.31;98409.41;5120422;28;19920;-68
2023/04/05 07:26:11;;;;;;;;;;;;;;;5.92;72.11;98403.66;5120770;28;19955;-68
2023/04/05 07:28:38;;;;;;;;;;;;;;;5.51;70.62;98412.19;5124306;28;19924;-68
2023/04/05 07:31:06;;;;;;;;;;;;;;;5.87;74.32;98398.22;5120288;28;20464;-69
2023/04/05 07:33:32;;;;;;;;;;;;;;;5.56;72.21;98399.13;5102572;28;19967;-69
2023/04/05 07:35:59;;;;;;;;;;;;;;;5.50;73.35;98412.41;5102494;28;19924;-68
2023/04/05 07:38:26;;;;;;;;;;;;;;;5.41;74.01;98398.66;5123178;28;19920;-68
2023/04/05 07:40:52;;;;;;;;;;;;;;;5.91;73.55;98404.69;5124001;28;19979;-68
2023/04/05 07:43:19;;;;;;;;;;;;;;;5.73;68.81;98404.63;5122569;28;19966;-67
2023/04/05 07:45:45;;;;;;;;;;;;;;;5.77;71.62;98403.19;5102258;28;19970;-70
2023/04/05 07:48:13;;;;;;;;;;;;;;;6.00;70.83;98402.56;5120997;28;19967;-68
2023/04/05 07:50:41;;;;;;;;;;;;;;;6.14;69.83;98404.81;5105955;28;19920;-68
2023/04/05 07:53:07;;;;;;;;;;;;;;;5.71;64.65;98404.06;5123656;28;19923;-68
2023/04/05 07:55:33;;;;;;;;;;;;;;;5.88;68.28;98397.19;5102282;28;19924;-68
2023/04/05 07:58:00;;;;;;;;;;;;;;;5.96;66.84;98404.84;5119999;28;19924;-68
2023/04/05 08:00:26;;;;;;;;;;;;;;;5.27;59.33;98403.25;5107532;28;19934;-67
2023/04/05 08:02:52;;;;;;;;;;;;;;;5.44;64.81;98398.22;5118041;28;19987;-65
2023/04/05 08:05:20;;;;;;;;;;;;;;;5.65;64.37;98387.19;5123097;28;19959;-68
2023/04/05 08:07:46;;;;;;;;;;;;;;;5.73;62.96;98399.34;5118693;28;19930;-68
2023/04/05 08:10:13;;;;;;;;;;;;;;;5.57;60.72;98391.97;5121016;28;19924;-69
2023/04/05 08:12:39;;;;;;;;;;;;;;;5.74;64.57;98395.66;5106076;28;19924;-68
2023/04/05 08:15:06;;;;;;;;;;;;;;;5.71;63.73;98396.09;5123936;28;19946;-68
2023/04/05 08:17:32;;;;;;;;;;;;;;;5.69;64.75;98392.88;5120990;28;20007;-71
2023/04/05 08:19:59;;;;;;;;;;;;;;;5.42;59.12;98385.19;5120176;28;19952;-69
2023/04/05 08:22:28;;;;;;;;;;;;;;;5.56;63.09;98383.22;5122181;28;19920;-70
2023/04/05 08:24:55;;;;;;;;;;;;;;;5.80;62.52;98386.84;5123460;28;19920;-67
2023/04/05 08:27:21;;;;;;;;;;;;;;;5.92;61.46;98385.91;5103197;28;19955;-68
2023/04/05 08:29:47;;;;;;;;;;;;;;;5.18;55.03;98390.50;5120406;28;19958;-69
2023/04/05 08:32:14;;;;;;;;;;;;;;;4.85;56.42;98385.47;5114620;28;19978;-69
2023/04/05 08:34:40;;;;;;;;;;;;;;;4.51;55.28;98384.06;5123028;28;19951;-69
2023/04/05 08:37:06;;;;;;;;;;;;;;;4.53;56.35;98382.00;5123096;28;19987;-67
2023/04/05 08:39:35;;;;;;;;;;;;;;;4.82;58.60;98383.25;5111268;28;19924;-68
2023/04/05 08:42:04;;;;;;;;;;;;;;;5.12;58.97;98378.94;5110477;28;19924;-69
2023/04/05 08:44:31;;;;;;;;;;;;;;;5.51;60.16;98379.63;5110303;28;19928;-68
2023/04/05 08:46:58;;;;;;;;;;;;;;;5.36;57.20;98375.47;5110097;28;19967;-68
2023/04/05 08:49:25;;;;;;;;;;;;;;;5.23;56.91;98386.16;5110185;28;19920;-69
2023/04/05 08:51:51;;;;;;;;;;;;;;;5.07;55.70;98376.13;5110625;28;19928;-67
2023/04/05 08:54:17;;;;;;;;;;;;;;;5.04;55.76;98373.91;5110850;28;19924;-69
2023/04/05 08:56:46;;;;;;;;;;;;;;;4.97;54.27;98375.81;5092255;28;20014;-69
2023/04/05 08:59:15;;;;;;;;;;;;;;;5.00;54.89;98369.25;5109721;28;19959;-68
2023/04/05 09:01:42;;;;;;;;;;;;;;;4.90;54.66;98364.44;5114759;28;19920;-69
2023/04/05 09:04:11;;;;;;;;;;;;;;;5.30;56.00;98364.91;5119218;28;19935;-67
2023/04/05 09:06:38;;;;;;;;;;;;;;;5.36;54.55;98367.50;5122306;28;19935;-67
2023/04/05 09:09:06;;;;;;;;;;;;;;;5.14;54.33;98365.47;5122223;28;19920;-67
2023/04/05 09:11:32;;;;;;;;;;;;;;;4.81;53.79;98363.09;5118605;28;19931;-68
2023/04/05 09:14:02;;;;;;;;;;;;;;;4.94;55.15;98365.66;5118606;28;19956;-67
2023/04/05 09:16:28;;;;;;;;;;;;;;;4.89;54.50;98362.81;5121625;28;20069;-68
2023/04/05 09:18:55;;;;;;;;;;;;;;;5.15;54.82;98357.31;5121837;28;19939;-68
2023/04/05 09:21:22;;;;;;;;;;;;;;;5.01;54.82;98355.00;5120234;28;19955;-69
2023/04/05 09:23:52;;;;;;;;;;;;;;;4.77;54.80;98361.91;5118885;28;19955;-70
2023/04/05 09:26:18;;;;;;;;;;;;;;;5.49;55.35;98363.94;5120080;28;19927;-69
2023/04/05 09:28:45;;;;;;;;;;;;;;;5.53;54.63;98359.81;5122163;28;19928;-69
2023/04/05 09:31:29;;;;;;;;;;;;;;;5.18;53.47;98358.72;5116966;28;19931;-70
2023/04/05 09:33:57;;;;;;;;;;;;;;;5.64;56.20;98351.13;5118361;28;19930;-69
2023/04/05 09:36:23;;;;;;;;;;;;;;;5.79;54.42;98354.22;5120330;28;19924;-69
2023/04/05 09:38:50;;;;;;;;;;;;;;;5.65;53.76;98351.94;5103800;28;19995;-69
2023/04/05 09:41:16;;;;;;;;;;;;;;;6.07;54.78;98344.94;5120688;28;19928;-70
2023/04/05 09:43:42;;;;;;;;;;;;;;;6.84;53.94;98346.72;5118496;28;19962;-68
2023/04/05 09:46:26;;;;;;;;;;;;;;;6.37;52.54;98343.13;5118664;28;20082;-69
2023/04/05 09:48:55;;;;;;;;;;;;;;;6.40;52.13;98340.84;5121989;28;19931;-69
2023/04/05 09:51:22;;;;;;;;;;;;;;;6.36;51.77;98339.66;5119035;28;19923;-69
2023/04/05 09:53:58;;;;;;;;;;;;;;;5.92;52.27;98346.16;5118053;28;20011;-68
2023/04/05 09:56:25;;;;;;;;;;;;;;;5.59;52.08;98353.63;5120283;28;20380;-69
2023/04/05 09:58:53;;;;;;;;;;;;;;;6.02;52.78;98348.28;5120948;28;20308;-71
2023/04/05 10:01:20;;;;;;;;;;;;;;;5.67;51.92;98352.53;5097190;28;19924;-70
2023/04/05 10:03:47;;;;;;;;;;;;;;;5.66;51.87;98348.28;5099605;28;19991;-69
2023/04/05 10:06:15;;;;;;;;;;;;;;;5.73;52.32;98343.69;5118274;28;20374;-67
2023/04/05 10:08:42;;;;;;;;;;;;;;;5.79;51.79;98343.63;5103421;28;19945;-69
2023/04/05 10:11:09;;;;;;;;;;;;;;;5.72;51.42;98352.69;5103135;28;19991;-68
2023/04/05 10:13:37;;;;;;;;;;;;;;;5.87;52.09;98342.56;5117800;28;19931;-68
2023/04/05 10:16:06;;;;;;;;;;;;;;;6.08;52.33;98347.38;5099267;28;19930;-69
2023/04/05 10:18:40;;;;;;;;;;;;;;;7.43;52.84;98340.38;5120846;28;19974;-69
2023/04/05 10:21:11;;;;;;;;;;;;;;;7.75;52.45;98333.66;5120829;28;19930;-68
2023/04/05 10:23:41;;;;;;;;;;;;;;;8.14;51.12;98337.34;5117694;28;19932;-69
2023/04/05 10:26:10;;;;;;;;;;;;;;;8.29;51.36;98335.03;5117446;28;19947;-68
2023/04/05 10:28:37;;;;;;;;;;;;;;;8.48;50.94;98333.78;5121357;28;19987;-68
2023/04/05 10:31:10;;;;;;;;;;;;;;;8.49;49.76;98330.06;5116995;28;19928;-68
2023/04/05 10:33:40;;;;;;;;;;;;;;;7.97;48.43;98329.34;5117359;28;19923;-69
2023/04/05 10:36:09;;;;;;;;;;;;;;;8.21;49.86;98337.22;5117027;28;19959;-67
2023/04/05 10:38:43;;;;;;;;;;;;;;;7.84;48.64;98329.59;5117570;28;19924;-67
2023/04/05 10:41:13;;;;;;;;;;;;;;;7.36;48.18;98329.09;5117600;28;19955;-68
2023/04/05 10:43:40;;;;;;;;;;;;;;;8.16;50.23;98324.63;5121309;28;19981;-67
2023/04/05 10:46:06;;;;;;;;;;;;;;;8.00;47.54;98334.19;5120913;28;19923;-70
2023/04/05 10:48:37;;;;;;;;;;;;;;;8.25;49.10;98325.88;5117304;28;19924;-67
2023/04/05 10:51:03;;;;;;;;;;;;;;;8.18;48.48;98321.72;5117123;28;19991;-69
2023/04/05 10:53:30;;;;;;;;;;;;;;;8.11;48.64;98325.34;5120444;28;20743;-68
2023/04/05 10:55:57;;;;;;;;;;;;;;;7.96;47.73;98342.84;5120639;28;19945;-69
2023/04/05 10:58:25;;;;;;;;;;;;;;;7.83;47.85;98327.19;5118491;28;19962;-68
2023/04/05 11:00:53;;;;;;;;;;;;;;;8.71;49.13;98326.72;5117388;28;19928;-66
2023/04/05 11:03:39;;;;;;;;;;;;;;;8.96;48.21;98324.47;5117644;28;19927;-68
2023/04/05 11:06:18;;;;;;;;;;;;;;;8.74;47.15;98318.25;5117707;28;19924;-68
2023/04/05 11:08:46;;;;;;;;;;;;;;;8.95;47.54;98321.00;5099295;28;19962;-69
2023/04/05 11:11:14;;;;;;;;;;;;;;;9.28;48.32;98320.19;5117898;28;19936;-68
2023/04/05 11:13:52;;;;;;;;;;;;;;;9.41;48.85;98309.16;5120649;28;19999;-67
2023/04/05 11:16:18;;;;;;;;;;;;;;;9.13;47.76;98310.09;5119235;28;19962;-68
2023/04/05 11:18:46;;;;;;;;;;;;;;;9.05;46.38;98309.69;5098726;28;20059;-69
2023/04/05 11:21:19;;;;;;;;;;;;;;;8.33;44.18;98306.88;5117828;28;19932;-68
2023/04/05 11:23:59;;;;;;;;;;;;;;;7.56;44.26;98305.59;5120874;28;19991;-67
2023/04/05 11:26:30;;;;;;;;;;;;;;;7.41;44.30;98300.78;5117968;28;19924;-69
2023/04/05 11:28:58;;;;;;;;;;;;;;;8.12;46.77;98292.38;5116840;28;19976;-67
2023/04/05 11:31:25;;;;;;;;;;;;;;;7.69;44.98;98293.91;5116314;28;19921;-69
2023/04/05 11:33:58;;;;;;;;;;;;;;;7.51;46.25;98297.53;5116296;28;19935;-70
2023/04/05 11:36:32;;;;;;;;;;;;;;;7.95;47.27;98296.81;5118988;28;19932;-69
2023/04/05 11:39:31;;;;;;;;;;;;;;;8.21;47.63;98290.13;5120917;28;19924;-69
2023/04/05 11:41:59;;;;;;;;;;;;;;;8.49;46.36;98284.81;5075830;28;19925;-66
2023/04/05 11:44:27;;;;;;;;;;;;;;;8.10;45.35;98293.66;5080374;28;19931;-68
2023/04/05 11:46:54;;;;;;;;;;;;;;;8.05;46.58;98283.72;5091849;28;19923;-69
2023/04/05 11:49:22;;;;;;;;;;;;;;;8.25;46.19;98287.81;5104434;28;19924;-68
2023/04/05 11:51:48;;;;;;;;;;;;;;;8.66;47.36;98272.31;5102201;28;19924;-69
2023/04/05 11:54:14;;;;;;;;;;;;;;;8.67;46.24;98286.44;5120807;28;19920;-67
2023/04/05 11:56:42;;;;;;;;;;;;;;;8.55;46.74;98291.84;5124313;28;19966;-68
2023/04/05 11:59:13;;;;;;;;;;;;;;;8.58;46.27;98286.03;5123892;28;19924;-69
2023/04/05 12:01:44;;;;;;;;;;;;;;;8.39;46.13;98281.97;5115762;28;19924;-68
2023/04/05 12:04:13;;;;;;;;;;;;;;;8.61;46.86;98280.25;5102107;28;19991;-69
2023/04/05 12:06:40;;;;;;;;;;;;;;;8.34;45.01;98281.91;5123131;28;19923;-69
2023/04/05 12:09:06;;;;;;;;;;;;;;;7.66;44.25;98276.59;5123325;28;19931;-68
2023/04/05 12:11:33;;;;;;;;;;;;;;;7.45;44.46;98282.53;5119903;28;19963;-66
2023/04/05 12:14:00;;;;;;;;;;;;;;;7.45;45.33;98286.00;5101503;28;19927;-68
2023/04/05 12:16:26;;;;;;;;;;;;;;;7.52;45.90;98276.03;5103540;28;20464;-70
2023/04/05 12:18:55;;;;;;;;;;;;;;;7.83;47.14;98281.97;5122628;28;19924;-66
2023/04/05 12:21:21;;;;;;;;;;;;;;;7.67;45.87;98274.72;5120539;28;19924;-68
2023/04/05 12:23:48;;;;;;;;;;;;;;;8.14;47.51;98271.66;5120590;28;19966;-68
2023/04/05 12:26:14;;;;;;;;;;;;;;;8.49;47.45;98260.06;5102317;28;20003;-67
2023/04/05 12:28:51;;;;;;;;;;;;;;;8.60;47.58;98261.84;5105280;28;20409;-67
2023/04/05 12:31:17;;;;;;;;;;;;;;;8.67;47.58;98254.50;5117986;28;19924;-68
2023/04/05 12:33:44;;;;;;;;;;;;;;;8.67;46.34;98249.97;5101325;28;19963;-71
2023/04/05 12:36:14;;;;;;;;;;;;;;;8.38;43.97;98253.78;5119957;28;19928;-69
2023/04/05 12:38:40;;;;;;;;;;;;;;;8.46;46.87;98250.69;5123338;28;19924;-66
2023/04/05 12:41:06;;;;;;;;;;;;;;;8.76;47.89;98250.38;5122483;28;19923;-68
2023/04/05 12:43:39;;;;;;;;;;;;;;;8.92;47.87;98248.75;5119587;28;19955;-67
2023/04/05 12:46:08;;;;;;;;;;;;;;;9.00;48.07;98240.38;5102533;28;19954;-68
2023/04/05 12:48:37;;;;;;;;;;;;;;;9.07;46.78;98233.00;5119355;28;19994;-68
2023/04/05 12:51:04;;;;;;;;;;;;;;;9.11;47.61;98234.13;5119507;28;19924;-69
2023/04/05 12:53:32;;;;;;;;;;;;;;;9.14;48.50;98230.97;5123471;28;19919;-68
2023/04/05 12:56:00;;;;;;;;;;;;;;;9.31;47.72;98234.41;5123086;28;19955;-70
2023/04/05 12:58:32;;;;;;;;;;;;;;;9.27;47.08;98227.94;5120842;28;19923;-68
2023/04/05 13:00:59;;;;;;;;;;;;;;;9.29;47.44;98225.03;5119531;28;19959;-70